Time;durP1;ratioP1;P1;durP2;ratioP2;P2;SDS_P1;SDS_P2;PMS_P1;PMS_P2;Temp;Humidity;BMP_temperature;BMP_pressure;BME280_temperature;BME280_humidity;BME280_pressure;Samples;Min_cycle;Max_cycle;Signal;HPM_P1;HPM_P2
2022/12/29 00:02:06;;;;;;;6.90;6.00;;;;;;;;;;5030627;28;20159;-69
2022/12/29 00:04:32;;;;;;;12.27;7.25;;;;;;;;;;5030307;28;20049;-69
2022/12/29 00:06:59;;;;;;;7.85;6.82;;;;;;;;;;5030384;28;20404;-69
2022/12/29 00:09:26;;;;;;;10.73;7.25;;;;;;;;;;5030333;28;20419;-69
2022/12/29 00:11:52;;;;;;;9.10;7.43;;;;;;;;;;5047327;28;20442;-69
2022/12/29 00:17:03;;;;;;;8.23;6.90;;;;;;;;;;5049814;28;20045;-69
2022/12/29 00:36:05;;;;;;;9.35;6.10;;;;;;;;;;5010066;28;20042;-69
2022/12/29 00:44:05;;;;;;;7.22;5.90;;;;;;;;;;5010136;28;20072;-69
2022/12/29 00:46:32;;;;;;;7.22;5.65;;;;;;;;;;5009907;28;20495;-69
2022/12/29 00:51:43;;;;;;;6.95;5.05;;;;;;;;;;5009811;28;20608;-69
2022/12/29 00:54:09;;;;;;;6.68;5.38;;;;;;;;;;5009428;28;20041;-69
2022/12/29 00:56:35;;;;;;;6.82;5.28;;;;;;;;;;5009623;28;20136;-69
2022/12/29 00:59:06;;;;;;;6.63;5.40;;;;;;;;;;5009969;28;20463;-69
2022/12/29 01:01:32;;;;;;;5.93;5.32;;;;;;;;;;5008934;28;20385;-69
2022/12/29 01:03:58;;;;;;;5.75;4.85;;;;;;;;;;5009817;28;20068;-69
2022/12/29 01:06:24;;;;;;;6.88;5.20;;;;;;;;;;4993463;28;20042;-69
2022/12/29 01:10:09;;;;;;;7.10;5.18;;;;;;;;;;5009222;28;20042;-69
2022/12/29 01:11:37;;;;;;;7.88;5.22;;;;;;;;;;5039866;28;20080;-69
2022/12/29 01:14:03;;;;;;;7.10;5.22;;;;;;;;;;5049210;28;20033;-69
2022/12/29 01:16:29;;;;;;;5.13;4.47;;;;;;;;;;5048549;28;20041;-69
2022/12/29 01:18:55;;;;;;;7.05;4.80;;;;;;;;;;5049136;28;20092;-69
2022/12/29 01:21:21;;;;;;;6.80;4.63;;;;;;;;;;5048697;28;20080;-69
2022/12/29 01:23:47;;;;;;;4.82;4.32;;;;;;;;;;5032225;28;20510;-69
2022/12/29 01:26:15;;;;;;;5.63;4.57;;;;;;;;;;5039604;28;20037;-69
2022/12/29 01:28:41;;;;;;;6.60;4.05;;;;;;;;;;5029215;28;20052;-69
2022/12/29 01:31:08;;;;;;;4.57;4.07;;;;;;;;;;5028594;28;20042;-69
2022/12/29 01:33:34;;;;;;;6.95;4.30;;;;;;;;;;5029009;28;20507;-69
2022/12/29 01:36:05;;;;;;;4.30;3.90;;;;;;;;;;5029325;28;20041;-69
2022/12/29 01:38:31;;;;;;;5.50;4.07;;;;;;;;;;5030751;28;20048;-69
2022/12/29 01:40:57;;;;;;;6.90;3.92;;;;;;;;;;5033309;28;20045;-69
2022/12/29 01:43:43;;;;;;;6.05;3.70;;;;;;;;;;5032782;28;20041;-69
2022/12/29 01:46:23;;;;;;;4.97;3.70;;;;;;;;;;5033933;28;20439;-69
2022/12/29 01:48:51;;;;;;;6.25;4.13;;;;;;;;;;5033166;28;20038;-69
2022/12/29 01:51:17;;;;;;;4.43;3.88;;;;;;;;;;5033001;28;20468;-69
2022/12/29 01:53:44;;;;;;;5.18;3.53;;;;;;;;;;5032441;28;20073;-69
2022/12/29 01:56:12;;;;;;;5.38;3.67;;;;;;;;;;5016739;28;20075;-69
2022/12/29 01:58:40;;;;;;;5.57;4.00;;;;;;;;;;5032427;28;20434;-69
2022/12/29 02:01:06;;;;;;;6.35;3.72;;;;;;;;;;5032430;28;20091;-69
2022/12/29 02:03:33;;;;;;;5.18;3.80;;;;;;;;;;5032801;28;20037;-69
2022/12/29 02:05:59;;;;;;;4.22;3.30;;;;;;;;;;5032728;28;20048;-69
2022/12/29 02:08:26;;;;;;;6.43;3.70;;;;;;;;;;5015512;28;20041;-69
2022/12/29 02:10:52;;;;;;;5.20;3.30;;;;;;;;;;5041557;28;20376;-69
2022/12/29 02:13:20;;;;;;;7.90;3.42;;;;;;;;;;5052495;28;20037;-69
2022/12/29 02:16:01;;;;;;;3.97;2.90;;;;;;;;;;5052368;28;20491;-69
2022/12/29 02:18:45;;;;;;;5.20;3.13;;;;;;;;;;5051813;28;20036;-69
2022/12/29 02:21:30;;;;;;;4.70;3.10;;;;;;;;;;5052264;28;20045;-69
2022/12/29 02:23:56;;;;;;;3.72;2.75;;;;;;;;;;5051773;28;20041;-69
2022/12/29 02:26:34;;;;;;;5.07;3.13;;;;;;;;;;5040605;28;20041;-69
2022/12/29 02:29:12;;;;;;;5.32;2.75;;;;;;;;;;5031865;28;20099;-69
2022/12/29 02:32:01;;;;;;;4.25;3.00;;;;;;;;;;5015190;28;20050;-69
2022/12/29 02:34:40;;;;;;;5.43;3.30;;;;;;;;;;5024327;28;20041;-69
2022/12/29 02:37:11;;;;;;;3.88;2.70;;;;;;;;;;5032164;28;20044;-69
2022/12/29 02:39:56;;;;;;;4.70;3.30;;;;;;;;;;5031593;28;20077;-69
2022/12/29 02:42:34;;;;;;;3.53;2.50;;;;;;;;;;5031922;28;20111;-69
2022/12/29 02:45:06;;;;;;;5.95;2.35;;;;;;;;;;5031703;28;20068;-69
2022/12/29 02:47:37;;;;;;;3.90;2.60;;;;;;;;;;5031887;28;20119;-69
2022/12/29 02:50:03;;;;;;;3.20;2.70;;;;;;;;;;5014645;28;20044;-69
2022/12/29 02:52:36;;;;;;;3.00;2.53;;;;;;;;;;5031679;28;20126;-69
2022/12/29 02:55:02;;;;;;;5.05;2.47;;;;;;;;;;5031636;28;20427;-69
2022/12/29 02:57:30;;;;;;;3.85;2.15;;;;;;;;;;5031847;28;20037;-69
2022/12/29 02:59:56;;;;;;;6.80;2.42;;;;;;;;;;5031423;28;20179;-69
2022/12/29 03:02:22;;;;;;;4.03;2.40;;;;;;;;;;5031346;28;20132;-69
2022/12/29 03:05:06;;;;;;;3.45;2.00;;;;;;;;;;5031641;28;20449;-69
2022/12/29 03:07:51;;;;;;;2.78;2.13;;;;;;;;;;5031348;28;20099;-69
2022/12/29 03:10:36;;;;;;;2.60;2.00;;;;;;;;;;5035669;28;20944;-69
2022/12/29 03:16:03;;;;;;;1.67;1.50;;;;;;;;;;5050942;28;20064;-69
2022/12/29 03:18:32;;;;;;;7.35;1.83;;;;;;;;;;5050985;28;20047;-69
2022/12/29 03:21:01;;;;;;;2.45;1.80;;;;;;;;;;5051040;28;20053;-69
2022/12/29 03:23:27;;;;;;;3.03;2.00;;;;;;;;;;5050848;28;20041;-69
2022/12/29 03:25:56;;;;;;;2.10;1.75;;;;;;;;;;5043629;28;20091;-69
2022/12/29 03:28:28;;;;;;;2.45;2.05;;;;;;;;;;5032383;28;20041;-69
2022/12/29 03:30:54;;;;;;;;;;;;;;;;;;5031089;28;20045;-69
2022/12/29 03:33:23;;;;;;;1.85;1.50;;;;;;;;;;5030789;28;19939;-69
2022/12/29 03:35:51;;;;;;;1.75;1.63;;;;;;;;;;5030952;28;20049;-69
2022/12/29 03:38:20;;;;;;;3.45;1.70;;;;;;;;;;5030914;28;20463;-69
2022/12/29 03:40:51;;;;;;;3.35;1.70;;;;;;;;;;5031178;28;20484;-69
2022/12/29 03:43:17;;;;;;;4.80;1.65;;;;;;;;;;5030761;28;20129;-69
2022/12/29 03:45:43;;;;;;;4.80;1.65;;;;;;;;;;5014133;28;20091;-69
2022/12/29 03:48:09;;;;;;;1.88;1.30;;;;;;;;;;5030900;28;20077;-69
2022/12/29 03:50:35;;;;;;;3.08;1.42;;;;;;;;;;5030607;28;20041;-69
2022/12/29 03:53:01;;;;;;;2.55;1.23;;;;;;;;;;5030469;28;20539;-69
2022/12/29 03:55:27;;;;;;;4.10;1.48;;;;;;;;;;5030561;28;20035;-69
2022/12/29 03:57:53;;;;;;;4.18;1.50;;;;;;;;;;5032165;28;20483;-69
2022/12/29 04:00:20;;;;;;;5.03;1.40;;;;;;;;;;5030397;28;20041;-69
2022/12/29 04:02:46;;;;;;;7.25;1.70;;;;;;;;;;5029249;28;20048;-69
2022/12/29 04:05:12;;;;;;;6.43;1.88;;;;;;;;;;5030680;28;20468;-69
2022/12/29 04:07:38;;;;;;;3.53;1.38;;;;;;;;;;5030206;28;20049;-69
2022/12/29 04:10:04;;;;;;;7.50;1.40;;;;;;;;;;5032856;28;20128;-69
2022/12/29 04:12:30;;;;;;;4.03;1.30;;;;;;;;;;5050003;28;20124;-69
2022/12/29 04:14:56;;;;;;;4.25;1.42;;;;;;;;;;5050074;28;20491;-69
2022/12/29 04:17:22;;;;;;;5.10;2.05;;;;;;;;;;5050153;28;20037;-69
2022/12/29 04:19:48;;;;;;;3.10;1.30;;;;;;;;;;5050121;28;20092;-69
2022/12/29 04:22:14;;;;;;;4.32;1.20;;;;;;;;;;5049466;28;20091;-69
2022/12/29 04:24:40;;;;;;;2.88;1.30;;;;;;;;;;5050349;28;20048;-69
2022/12/29 04:27:06;;;;;;;5.22;0.90;;;;;;;;;;5015837;28;20663;-69
2022/12/29 04:29:32;;;;;;;5.60;1.23;;;;;;;;;;5029468;28;20037;-69
2022/12/29 04:31:58;;;;;;;1.30;0.88;;;;;;;;;;5029936;28;20471;-69
2022/12/29 04:34:24;;;;;;;3.55;1.42;;;;;;;;;;5029841;28;20389;-69
2022/12/29 04:36:50;;;;;;;6.93;1.40;;;;;;;;;;5029721;28;20044;-69
2022/12/29 04:39:16;;;;;;;9.25;1.70;;;;;;;;;;5030149;28;20045;-69
2022/12/29 04:41:42;;;;;;;6.25;1.80;;;;;;;;;;5029507;28;20076;-69
2022/12/29 04:44:08;;;;;;;7.75;1.67;;;;;;;;;;5013077;28;20041;-69
2022/12/29 04:46:34;;;;;;;7.82;1.80;;;;;;;;;;5029670;28;20042;-69
2022/12/29 04:49:04;;;;;;;6.75;1.77;;;;;;;;;;5029814;28;20155;-69
2022/12/29 04:51:30;;;;;;;7.30;2.03;;;;;;;;;;5029242;28;20072;-69
2022/12/29 04:53:56;;;;;;;12.80;1.80;;;;;;;;;;5029446;28;20049;-69
2022/12/29 04:56:22;;;;;;;6.53;1.45;;;;;;;;;;5029751;28;20052;-69
2022/12/29 04:58:48;;;;;;;6.40;1.40;;;;;;;;;;5029228;28;20060;-69
2022/12/29 05:01:14;;;;;;;9.10;1.75;;;;;;;;;;5029242;28;20033;-69
2022/12/29 05:03:40;;;;;;;5.55;1.30;;;;;;;;;;5029153;28;20056;-69
2022/12/29 05:06:06;;;;;;;11.70;1.58;;;;;;;;;;5029252;28;20404;-69
2022/12/29 05:08:32;;;;;;;12.65;1.73;;;;;;;;;;5029237;28;20056;-69
2022/12/29 05:10:58;;;;;;;8.48;2.05;;;;;;;;;;5039122;28;20044;-69
2022/12/29 05:13:24;;;;;;;14.95;2.33;;;;;;;;;;5048469;28;20491;-69
2022/12/29 05:15:54;;;;;;;5.75;1.58;;;;;;;;;;5049171;28;20059;-69
2022/12/29 05:18:20;;;;;;;9.77;1.77;;;;;;;;;;5048992;28;20041;-69
2022/12/29 05:20:47;;;;;;;10.68;1.88;;;;;;;;;;5048328;28;20049;-69
2022/12/29 05:23:13;;;;;;;10.00;1.50;;;;;;;;;;5048995;28;20726;-69
2022/12/29 05:25:39;;;;;;;6.55;1.35;;;;;;;;;;5043294;28;20037;-69
2022/12/29 05:28:05;;;;;;;13.63;1.80;;;;;;;;;;5012651;28;20488;-69
2022/12/29 05:30:31;;;;;;;9.80;1.83;;;;;;;;;;5012626;28;20037;-69
2022/12/29 05:32:57;;;;;;;10.63;1.52;;;;;;;;;;5028829;28;20103;-69
2022/12/29 05:35:23;;;;;;;11.88;1.38;;;;;;;;;;5028164;28;20038;-69
2022/12/29 05:37:49;;;;;;;6.65;1.15;;;;;;;;;;5029320;28;20376;-69
2022/12/29 05:40:15;;;;;;;8.07;1.23;;;;;;;;;;5029021;28;20051;-69
2022/12/29 05:42:41;;;;;;;8.10;1.55;;;;;;;;;;5028583;28;20361;-69
2022/12/29 05:45:08;;;;;;;5.25;0.98;;;;;;;;;;5028679;28;20049;-70
2022/12/29 05:47:34;;;;;;;5.80;1.40;;;;;;;;;;5012293;28;20048;-69
2022/12/29 05:50:00;;;;;;;5.88;1.30;;;;;;;;;;5028496;28;20065;-69
2022/12/29 05:52:26;;;;;;;8.88;2.13;;;;;;;;;;5012208;28;20391;-69
2022/12/29 05:54:52;;;;;;;9.18;1.40;;;;;;;;;;5028676;28;20029;-69
2022/12/29 05:57:18;;;;;;;7.35;1.85;;;;;;;;;;5028882;28;20033;-69
2022/12/29 05:59:44;;;;;;;5.03;1.23;;;;;;;;;;5012309;28;20606;-69
2022/12/29 06:02:10;;;;;;;8.45;1.75;;;;;;;;;;5028991;28;20049;-69
2022/12/29 06:04:36;;;;;;;9.40;1.50;;;;;;;;;;5028709;28;20132;-69
2022/12/29 06:07:03;;;;;;;5.22;1.17;;;;;;;;;;5028653;28;20060;-69
2022/12/29 06:09:29;;;;;;;11.02;1.60;;;;;;;;;;5028476;28;20033;-69
2022/12/29 06:11:55;;;;;;;3.83;1.30;;;;;;;;;;5046276;28;20068;-69
2022/12/29 06:14:21;;;;;;;6.35;1.92;;;;;;;;;;5048343;28;20044;-69
2022/12/29 06:16:47;;;;;;;6.78;1.55;;;;;;;;;;5048431;28;20045;-69
2022/12/29 06:19:13;;;;;;;10.95;1.88;;;;;;;;;;5048417;28;20053;-69
2022/12/29 06:21:39;;;;;;;8.20;1.80;;;;;;;;;;5047812;28;20048;-69
2022/12/29 06:24:05;;;;;;;11.45;1.67;;;;;;;;;;5048436;28;20043;-69
2022/12/29 06:26:31;;;;;;;6.05;1.60;;;;;;;;;;5038876;28;20041;-69
2022/12/29 06:28:57;;;;;;;11.80;2.05;;;;;;;;;;5031791;28;20087;-69
2022/12/29 06:31:23;;;;;;;10.35;1.60;;;;;;;;;;5031966;28;20052;-69
2022/12/29 06:33:49;;;;;;;7.07;1.50;;;;;;;;;;5032252;28;20045;-69
2022/12/29 06:36:15;;;;;;;12.52;1.73;;;;;;;;;;5031633;28;20048;-69
2022/12/29 06:38:41;;;;;;;11.48;1.90;;;;;;;;;;5032387;28;20034;-69
2022/12/29 06:41:07;;;;;;;5.50;1.50;;;;;;;;;;5030790;28;20140;-66
2022/12/29 06:43:35;;;;;;;7.55;1.80;;;;;;;;;;5033213;28;20041;-66
2022/12/29 06:46:01;;;;;;;8.90;1.70;;;;;;;;;;5031466;28;20105;-67
2022/12/29 06:48:27;;;;;;;8.60;2.05;;;;;;;;;;5033124;28;20431;-66
2022/12/29 06:50:53;;;;;;;13.63;2.38;;;;;;;;;;5032365;28;20038;-66
2022/12/29 06:53:19;;;;;;;9.48;1.58;;;;;;;;;;5031240;28;20124;-67
2022/12/29 06:55:45;;;;;;;9.80;1.85;;;;;;;;;;5032695;28;20045;-67
2022/12/29 06:58:11;;;;;;;8.27;2.00;;;;;;;;;;5032801;28;20044;-67
2022/12/29 07:00:37;;;;;;;10.13;2.05;;;;;;;;;;5031277;28;20128;-67
2022/12/29 07:03:03;;;;;;;6.32;1.30;;;;;;;;;;5031522;28;20091;-67
2022/12/29 07:05:32;;;;;;;8.00;1.65;;;;;;;;;;5032053;28;20052;-66
2022/12/29 07:07:58;;;;;;;9.90;1.88;;;;;;;;;;5032543;28;20124;-66
2022/12/29 07:10:24;;;;;;;10.13;1.92;;;;;;;;;;5037402;28;20124;-66
2022/12/29 07:12:50;;;;;;;9.88;1.77;;;;;;;;;;5023821;28;20065;-67
2022/12/29 07:15:16;;;;;;;10.20;2.08;;;;;;;;;;5012695;28;20059;-66
2022/12/29 07:17:42;;;;;;;7.93;1.52;;;;;;;;;;5012882;28;20041;-66
2022/12/29 07:20:09;;;;;;;11.95;2.28;;;;;;;;;;5020145;28;20204;-66
2022/12/29 07:22:35;;;;;;;10.95;1.70;;;;;;;;;;5032546;28;20510;-65
2022/12/29 07:25:02;;;;;;;13.80;2.40;;;;;;;;;;5032910;28;20041;-65
2022/12/29 07:27:28;;;;;;;15.30;2.10;;;;;;;;;;5032275;28;20049;-65
2022/12/29 07:29:54;;;;;;;11.30;2.53;;;;;;;;;;5032977;28;20083;-66
2022/12/29 07:32:20;;;;;;;13.80;2.08;;;;;;;;;;5030815;28;20044;-66
2022/12/29 07:34:47;;;;;;;10.75;1.58;;;;;;;;;;5032485;28;20060;-66
2022/12/29 07:37:14;;;;;;;11.52;2.28;;;;;;;;;;5030792;28;20045;-66
2022/12/29 07:39:40;;;;;;;11.60;2.28;;;;;;;;;;5032228;28;20052;-67
2022/12/29 07:42:06;;;;;;;8.80;1.92;;;;;;;;;;5031768;28;20053;-66
2022/12/29 07:44:32;;;;;;;11.93;2.15;;;;;;;;;;5032361;28;20041;-66
2022/12/29 07:46:58;;;;;;;7.97;1.83;;;;;;;;;;5032419;28;20048;-66
2022/12/29 07:49:24;;;;;;;9.98;1.90;;;;;;;;;;5027378;28;20593;-66
2022/12/29 07:51:50;;;;;;;10.20;2.10;;;;;;;;;;5016896;28;20443;-66
2022/12/29 07:54:18;;;;;;;11.82;1.90;;;;;;;;;;5032215;28;20037;-66
2022/12/29 07:56:44;;;;;;;10.35;2.10;;;;;;;;;;5031852;28;20164;-66
2022/12/29 07:59:11;;;;;;;11.90;1.95;;;;;;;;;;5032038;28;20033;-66
2022/12/29 08:01:38;;;;;;;13.50;2.20;;;;;;;;;;5031448;28;20498;-66
2022/12/29 08:04:04;;;;;;;16.55;2.47;;;;;;;;;;5031661;28;20048;-66
2022/12/29 08:06:30;;;;;;;12.90;2.35;;;;;;;;;;5032354;28;20086;-66
2022/12/29 08:08:57;;;;;;;10.23;1.85;;;;;;;;;;5031705;28;20069;-67
2022/12/29 08:11:23;;;;;;;10.02;1.73;;;;;;;;;;5025994;28;20655;-66
2022/12/29 08:13:49;;;;;;;13.07;2.22;;;;;;;;;;5010452;28;20080;-66
2022/12/29 08:16:15;;;;;;;11.98;1.90;;;;;;;;;;5019162;28;20036;-67
2022/12/29 08:18:41;;;;;;;10.77;2.03;;;;;;;;;;5031079;28;20030;-67
2022/12/29 08:21:07;;;;;;;14.70;2.45;;;;;;;;;;5031626;28;20042;-67
2022/12/29 08:23:33;;;;;;;13.80;2.58;;;;;;;;;;5031303;28;20506;-67
2022/12/29 08:26:03;;;;;;;13.43;2.58;;;;;;;;;;5022719;28;20056;-67
2022/12/29 08:28:30;;;;;;;14.40;2.30;;;;;;;;;;5020769;28;20134;-67
2022/12/29 08:31:00;;;;;;;13.65;2.28;;;;;;;;;;5031570;28;20049;-67
2022/12/29 08:33:26;;;;;;;12.02;2.10;;;;;;;;;;5015982;28;20077;-66
2022/12/29 08:35:52;;;;;;;17.13;2.50;;;;;;;;;;5027678;28;20116;-67
2022/12/29 08:38:18;;;;;;;14.57;2.40;;;;;;;;;;5011860;28;20041;-66
2022/12/29 08:40:44;;;;;;;14.55;2.45;;;;;;;;;;5009531;28;20428;-67
2022/12/29 08:43:10;;;;;;;16.02;2.60;;;;;;;;;;5011579;28;20045;-67
2022/12/29 08:45:36;;;;;;;15.48;2.17;;;;;;;;;;5028988;28;20041;-67
2022/12/29 08:48:03;;;;;;;13.55;2.13;;;;;;;;;;5030145;28;20119;-66
2022/12/29 08:50:29;;;;;;;10.15;2.05;;;;;;;;;;5029655;28;20073;-66
2022/12/29 08:52:55;;;;;;;16.55;2.53;;;;;;;;;;5030651;28;20546;-66
2022/12/29 08:55:21;;;;;;;10.55;2.13;;;;;;;;;;5029183;28;20046;-67
2022/12/29 08:57:47;;;;;;;11.82;2.33;;;;;;;;;;5031046;28;20042;-67
2022/12/29 09:00:14;;;;;;;16.52;2.10;;;;;;;;;;5031001;28;20095;-68
2022/12/29 09:02:40;;;;;;;15.52;2.08;;;;;;;;;;5029483;28;20678;-67
2022/12/29 09:05:07;;;;;;;13.85;2.28;;;;;;;;;;5030509;28;20047;-67
2022/12/29 09:07:33;;;;;;;16.67;2.80;;;;;;;;;;5029598;28;20045;-67
2022/12/29 09:09:59;;;;;;;9.02;1.95;;;;;;;;;;5023656;28;20045;-67
2022/12/29 09:12:25;;;;;;;10.43;1.88;;;;;;;;;;5042776;28;20026;-66
2022/12/29 09:14:51;;;;;;;13.15;2.20;;;;;;;;;;5030556;28;20044;-66
2022/12/29 09:20:02;;;;;;;15.18;2.25;;;;;;;;;;5030291;28;20128;-67
2022/12/29 09:22:28;;;;;;;17.15;2.67;;;;;;;;;;5030336;28;20523;-67
2022/12/29 09:24:54;;;;;;;17.13;2.22;;;;;;;;;;5020000;28;20057;-67
2022/12/29 09:27:20;;;;;;;12.18;2.22;;;;;;;;;;5027928;28;20575;-67
2022/12/29 09:29:46;;;;;;;16.42;2.35;;;;;;;;;;5029485;28;20077;-67
2022/12/29 09:32:12;;;;;;;18.65;2.53;;;;;;;;;;5029630;28;20648;-67
2022/12/29 09:34:38;;;;;;;9.88;2.00;;;;;;;;;;5028747;28;20049;-67
2022/12/29 09:37:04;;;;;;;12.57;2.30;;;;;;;;;;5028073;28;20034;-67
2022/12/29 09:39:30;;;;;;;10.80;1.95;;;;;;;;;;5026940;28;20391;-67
2022/12/29 09:42:15;;;;;;;12.02;2.22;;;;;;;;;;5024402;28;20655;-67
2022/12/29 09:44:59;;;;;;;13.30;2.40;;;;;;;;;;5021204;28;20042;-66
2022/12/29 09:47:26;;;;;;;12.75;2.40;;;;;;;;;;5024248;28;20130;-67
2022/12/29 09:49:52;;;;;;;16.83;2.50;;;;;;;;;;5029714;28;20694;-67
2022/12/29 09:52:25;;;;;;;15.40;2.63;;;;;;;;;;5026250;28;20152;-68
2022/12/29 09:55:27;;;;;;;11.35;2.40;;;;;;;;;;5026072;28;20041;-67
2022/12/29 09:57:55;;;;;;;19.27;2.90;;;;;;;;;;4966805;28;20066;-67
2022/12/29 10:00:22;;;;;;;14.95;2.78;;;;;;;;;;5012651;28;20050;-66
2022/12/29 10:02:51;;;;;;;11.63;2.38;;;;;;;;;;5032123;28;20045;-67
2022/12/29 10:05:20;;;;;;;13.68;2.28;;;;;;;;;;5029850;28;20111;-65
2022/12/29 10:07:51;;;;;;;12.68;2.30;;;;;;;;;;5031227;28;20044;-68
2022/12/29 10:10:29;;;;;;;18.92;2.50;;;;;;;;;;5031641;28;20088;-68
2022/12/29 10:13:10;;;;;;;13.30;2.17;;;;;;;;;;5028786;28;20061;-67
2022/12/29 10:16:03;;;;;;;15.73;2.53;;;;;;;;;;5025488;28;20053;-67
2022/12/29 10:18:48;;;;;;;14.65;2.80;;;;;;;;;;5024957;28;20136;-68
2022/12/29 10:21:40;;;;;;;18.25;3.45;;;;;;;;;;5028920;28;20061;-65
2022/12/29 10:24:07;;;;;;;13.60;1.95;;;;;;;;;;5031802;28;20411;-65
2022/12/29 10:26:39;;;;;;;15.60;2.22;;;;;;;;;;5030908;28;20474;-64
2022/12/29 10:29:07;;;;;;;12.90;2.05;;;;;;;;;;5030511;28;20106;-67
2022/12/29 10:31:36;;;;;;;15.25;2.47;;;;;;;;;;5030023;28;20171;-68
2022/12/29 10:34:04;;;;;;;16.33;2.50;;;;;;;;;;5028560;28;20409;-69
2022/12/29 10:36:30;;;;;;;11.00;2.10;;;;;;;;;;5047269;28;20034;-67
2022/12/29 10:39:05;;;;;;;13.63;2.42;;;;;;;;;;5028761;28;20059;-67
2022/12/29 10:41:40;;;;;;;12.70;2.58;;;;;;;;;;5028601;28;20480;-68
2022/12/29 10:44:09;;;;;;;11.57;2.03;;;;;;;;;;5029612;28;20076;-65
2022/12/29 10:46:37;;;;;;;14.18;2.20;;;;;;;;;;5029122;28;20610;-65
2022/12/29 10:49:03;;;;;;;14.45;2.35;;;;;;;;;;5017546;28;20137;-65
2022/12/29 10:51:40;;;;;;;14.27;2.83;;;;;;;;;;5024569;28;20068;-66
2022/12/29 10:54:18;;;;;;;11.52;2.08;;;;;;;;;;5030762;28;20144;-65
2022/12/29 10:56:54;;;;;;;11.52;2.13;;;;;;;;;;5030626;28;20034;-65
2022/12/29 10:59:30;;;;;;;13.93;2.35;;;;;;;;;;5030397;28;20045;-66
2022/12/29 11:02:05;;;;;;;15.43;3.13;;;;;;;;;;5028643;28;20072;-64
2022/12/29 11:04:43;;;;;;;8.75;2.65;;;;;;;;;;5031212;28;20132;-68
2022/12/29 11:07:10;;;;;;;13.98;2.30;;;;;;;;;;5010551;28;20409;-66
2022/12/29 11:09:38;;;;;;;11.27;2.15;;;;;;;;;;5025554;28;20050;-66
2022/12/29 11:12:23;;;;;;;9.68;2.28;;;;;;;;;;5028090;28;20037;-67
2022/12/29 11:15:01;;;;;;;15.70;2.65;;;;;;;;;;5029277;28;20585;-68
2022/12/29 11:17:27;;;;;;;11.52;2.25;;;;;;;;;;5016288;28;20445;-67
2022/12/29 11:19:53;;;;;;;14.07;2.85;;;;;;;;;;5026340;28;20064;-65
2022/12/29 11:22:24;;;;;;;13.18;2.13;;;;;;;;;;5020961;28;20049;-67
2022/12/29 11:24:52;;;;;;;12.27;2.65;;;;;;;;;;5026067;28;20511;-66
2022/12/29 11:27:22;;;;;;;11.07;2.53;;;;;;;;;;5019970;28;20061;-66
2022/12/29 11:29:49;;;;;;;13.48;2.45;;;;;;;;;;5024462;28;20077;-66
2022/12/29 11:32:18;;;;;;;10.20;2.10;;;;;;;;;;5028946;28;20048;-67
2022/12/29 11:34:44;;;;;;;14.50;2.88;;;;;;;;;;5029110;28;20065;-65
2022/12/29 11:37:14;;;;;;;13.52;2.28;;;;;;;;;;5029383;28;20033;-65
2022/12/29 11:39:44;;;;;;;13.15;2.60;;;;;;;;;;5030275;28;20040;-65
2022/12/29 11:42:15;;;;;;;16.90;2.65;;;;;;;;;;5023175;28;20140;-66
2022/12/29 11:44:48;;;;;;;18.88;3.03;;;;;;;;;;5026457;28;20037;-64
2022/12/29 11:47:22;;;;;;;17.38;3.22;;;;;;;;;;5026807;28;20041;-64
2022/12/29 11:49:55;;;;;;;18.02;2.83;;;;;;;;;;5027429;28;20080;-64
2022/12/29 11:52:23;;;;;;;18.83;3.17;;;;;;;;;;5031235;28;20037;-64
2022/12/29 11:54:49;;;;;;;16.60;3.53;;;;;;;;;;5030210;28;20092;-64
2022/12/29 11:57:16;;;;;;;20.52;3.38;;;;;;;;;;5020794;28;20034;-64
2022/12/29 11:59:55;;;;;;;13.10;2.58;;;;;;;;;;5026557;28;20045;-64
2022/12/29 12:02:23;;;;;;;19.63;3.33;;;;;;;;;;5030631;28;20048;-64
2022/12/29 12:04:51;;;;;;;15.75;3.10;;;;;;;;;;5024634;28;20424;-64
2022/12/29 12:07:23;;;;;;;14.30;2.40;;;;;;;;;;5030032;28;20778;-64
2022/12/29 12:09:53;;;;;;;18.08;3.53;;;;;;;;;;5029630;28;20045;-64
2022/12/29 12:12:25;;;;;;;20.55;3.22;;;;;;;;;;5014010;28;20046;-64
2022/12/29 12:14:59;;;;;;;15.87;3.00;;;;;;;;;;5028669;28;20080;-64
2022/12/29 12:17:37;;;;;;;19.55;3.17;;;;;;;;;;5028921;28;20292;-64
2022/12/29 12:20:11;;;;;;;20.08;3.10;;;;;;;;;;5029910;28;20500;-65
2022/12/29 12:22:49;;;;;;;17.05;2.92;;;;;;;;;;5028427;28;20393;-66
2022/12/29 12:25:20;;;;;;;22.83;3.38;;;;;;;;;;5027558;28;20073;-66
2022/12/29 12:27:53;;;;;;;18.70;3.78;;;;;;;;;;5021463;28;20686;-65
2022/12/29 12:30:20;;;;;;;18.40;3.42;;;;;;;;;;5026340;28;20124;-66
2022/12/29 12:32:55;;;;;;;26.10;4.18;;;;;;;;;;5030577;28;20072;-67
2022/12/29 12:35:36;;;;;;;22.33;4.28;;;;;;;;;;5029707;28;20045;-66
2022/12/29 12:38:28;;;;;;;25.40;3.43;;;;;;;;;;5021272;28;20088;-65
2022/12/29 12:40:54;;;;;;;18.58;2.80;;;;;;;;;;5028873;28;20363;-66
2022/12/29 12:43:32;;;;;;;20.15;3.40;;;;;;;;;;5029033;28;20128;-66
2022/12/29 12:46:17;;;;;;;18.35;3.00;;;;;;;;;;5028901;28;20036;-67
2022/12/29 12:49:06;;;;;;;18.38;3.08;;;;;;;;;;5030409;28;20103;-67
2022/12/29 12:51:47;;;;;;;24.92;3.00;;;;;;;;;;5014147;28;20057;-67
2022/12/29 12:54:17;;;;;;;19.65;2.78;;;;;;;;;;5022486;28;20088;-67
2022/12/29 12:56:58;;;;;;;20.90;2.72;;;;;;;;;;5025900;28;20053;-67
2022/12/29 12:59:37;;;;;;;22.70;3.60;;;;;;;;;;5027651;28;20087;-67
2022/12/29 13:02:21;;;;;;;24.02;3.25;;;;;;;;;;5028318;28;20381;-67
2022/12/29 13:05:06;;;;;;;15.52;3.05;;;;;;;;;;5028115;28;20830;-67
2022/12/29 13:07:52;;;;;;;28.63;3.38;;;;;;;;;;5028308;28;20045;-67
2022/12/29 13:10:31;;;;;;;13.73;3.10;;;;;;;;;;5030250;28;20120;-66
2022/12/29 13:13:00;;;;;;;15.80;2.80;;;;;;;;;;5034699;28;20038;-67
2022/12/29 13:15:26;;;;;;;15.90;2.50;;;;;;;;;;5030381;28;20041;-67
2022/12/29 13:18:10;;;;;;;11.55;2.47;;;;;;;;;;5028222;28;20564;-67
2022/12/29 13:20:36;;;;;;;13.18;2.15;;;;;;;;;;5023089;28;20065;-65
2022/12/29 13:23:14;;;;;;;18.08;2.45;;;;;;;;;;5024686;28;20411;-65
2022/12/29 13:26:09;;;;;;;12.93;2.25;;;;;;;;;;5025294;28;20056;-65
2022/12/29 13:28:47;;;;;;;17.08;2.10;;;;;;;;;;5022191;28;20057;-64
2022/12/29 13:31:16;;;;;;;16.42;2.38;;;;;;;;;;5028851;28;20041;-65
2022/12/29 13:33:49;;;;;;;13.07;2.90;;;;;;;;;;5031167;28;20037;-65
2022/12/29 13:36:34;;;;;;;13.85;2.50;;;;;;;;;;5028506;28;20045;-66
2022/12/29 13:39:27;;;;;;;19.58;3.00;;;;;;;;;;5027285;28;20049;-68
2022/12/29 13:41:56;;;;;;;17.00;3.05;;;;;;;;;;5022772;28;20053;-67
2022/12/29 13:44:41;;;;;;;15.05;3.20;;;;;;;;;;5036270;28;20116;-67
2022/12/29 13:47:15;;;;;;;16.05;3.22;;;;;;;;;;5034457;28;20041;-66
2022/12/29 13:49:42;;;;;;;18.20;2.67;;;;;;;;;;5029313;28;20088;-66
2022/12/29 13:52:18;;;;;;;13.45;2.35;;;;;;;;;;5034165;28;20033;-66
2022/12/29 13:54:53;;;;;;;17.77;3.03;;;;;;;;;;5014768;28;20042;-66
2022/12/29 13:57:55;;;;;;;10.23;1.83;;;;;;;;;;5022201;28;20052;-66
2022/12/29 14:00:22;;;;;;;16.15;2.20;;;;;;;;;;4976688;28;20061;-67
2022/12/29 14:03:04;;;;;;;14.95;2.65;;;;;;;;;;5023547;28;20057;-67
2022/12/29 14:05:31;;;;;;;16.27;2.60;;;;;;;;;;5034178;28;20038;-67
2022/12/29 14:08:02;;;;;;;10.98;1.88;;;;;;;;;;5035174;28;20060;-67
2022/12/29 14:10:38;;;;;;;15.30;2.35;;;;;;;;;;5040147;28;20056;-65
2022/12/29 14:13:16;;;;;;;14.32;1.92;;;;;;;;;;5047687;28;20095;-65
2022/12/29 14:15:50;;;;;;;12.88;2.72;;;;;;;;;;5015054;28;20037;-69
2022/12/29 14:18:21;;;;;;;11.88;2.05;;;;;;;;;;5009043;28;20488;-67
2022/12/29 14:20:58;;;;;;;17.95;3.42;;;;;;;;;;5015543;28;20759;-68
2022/12/29 14:23:27;;;;;;;9.80;2.22;;;;;;;;;;5036656;28;20145;-68
2022/12/29 14:26:05;;;;;;;17.80;2.42;;;;;;;;;;5035964;28;20495;-66
2022/12/29 14:28:32;;;;;;;10.93;2.45;;;;;;;;;;5036449;28;20034;-67
2022/12/29 14:31:00;;;;;;;12.60;2.17;;;;;;;;;;5036203;28;20043;-67
2022/12/29 14:33:27;;;;;;;14.32;2.25;;;;;;;;;;5036203;28;20080;-67
2022/12/29 14:35:53;;;;;;;11.65;2.05;;;;;;;;;;5036134;28;20671;-67
2022/12/29 14:38:19;;;;;;;15.13;2.17;;;;;;;;;;5036657;28;20109;-67
2022/12/29 14:40:47;;;;;;;13.82;1.98;;;;;;;;;;5036249;28;20120;-67
2022/12/29 14:43:15;;;;;;;12.68;2.50;;;;;;;;;;5036024;28;20052;-67
2022/12/29 14:45:42;;;;;;;11.27;2.20;;;;;;;;;;5033948;28;20090;-67
2022/12/29 14:48:40;;;;;;;6.60;1.45;;;;;;;;;;5033221;28;20041;-67
2022/12/29 14:51:29;;;;;;;12.07;2.20;;;;;;;;;;5009703;28;20061;-67
2022/12/29 14:53:55;;;;;;;9.65;2.22;;;;;;;;;;5033571;28;20041;-67
2022/12/29 14:56:25;;;;;;;8.30;1.60;;;;;;;;;;5031816;28;20037;-67
2022/12/29 14:58:53;;;;;;;8.45;1.83;;;;;;;;;;5032919;28;20055;-67
2022/12/29 15:01:19;;;;;;;10.13;1.55;;;;;;;;;;5032997;28;20510;-67
2022/12/29 15:03:46;;;;;;;11.43;2.15;;;;;;;;;;5033220;28;20069;-67
2022/12/29 15:06:18;;;;;;;8.65;1.50;;;;;;;;;;5032868;28;20045;-67
2022/12/29 15:08:48;;;;;;;5.32;1.60;;;;;;;;;;5033213;28;20041;-67
2022/12/29 15:11:22;;;;;;;11.18;1.63;;;;;;;;;;5044423;28;20073;-67
2022/12/29 15:13:48;;;;;;;14.57;2.70;;;;;;;;;;5051224;28;20087;-67
2022/12/29 15:16:22;;;;;;;11.90;1.90;;;;;;;;;;5052753;28;20132;-67
2022/12/29 15:18:48;;;;;;;14.82;2.05;;;;;;;;;;5052274;28;20080;-67
2022/12/29 15:21:16;;;;;;;10.02;2.35;;;;;;;;;;5052346;28;20073;-67
2022/12/29 15:23:43;;;;;;;14.98;1.83;;;;;;;;;;5052634;28;20091;-67
2022/12/29 15:26:09;;;;;;;8.80;2.38;;;;;;;;;;5042894;28;20072;-67